Time;durP1;ratioP1;P1;durP2;ratioP2;P2;SDS_P1;SDS_P2;PMS_P1;PMS_P2;Temp;Humidity;BMP_temperature;BMP_pressure;BME280_temperature;BME280_humidity;BME280_pressure;Samples;Min_cycle;Max_cycle;Signal;HPM_P1;HPM_P2
2023/04/20 00:01:07;;;;;;;7.07;3.47;;;8.10;89.40;;;;;;5172121;27;20034;-57
2023/04/20 00:03:34;;;;;;;9.27;3.80;;;8.30;90.00;;;;;;5173211;27;20113;-56
2023/04/20 00:06:00;;;;;;;8.15;3.70;;;8.30;90.80;;;;;;5139659;27;20397;-58
2023/04/20 00:08:29;;;;;;;8.60;3.88;;;7.60;91.10;;;;;;5172392;27;20391;-58
2023/04/20 00:10:55;;;;;;;9.27;3.58;;;7.70;91.40;;;;;;5172075;27;20073;-56
2023/04/20 00:13:20;;;;;;;6.82;3.53;;;7.50;91.30;;;;;;5172897;27;20500;-56
2023/04/20 00:15:46;;;;;;;5.93;3.33;;;7.60;92.30;;;;;;5170481;27;20034;-58
2023/04/20 00:18:12;;;;;;;10.85;3.80;;;7.80;92.70;;;;;;5172823;27;20066;-56
2023/04/20 00:20:38;;;;;;;6.60;3.45;;;7.50;92.70;;;;;;5172539;27;20380;-58
2023/04/20 00:23:04;;;;;;;7.38;3.50;;;7.80;93.40;;;;;;5173545;27;20406;-57
2023/04/20 00:25:30;;;;;;;7.53;3.80;;;7.70;93.00;;;;;;5153144;27;20106;-57
2023/04/20 00:27:56;;;;;;;9.57;4.18;;;7.50;93.00;;;;;;5170268;27;20517;-58
2023/04/20 00:30:22;;;;;;;8.57;3.97;;;7.30;93.10;;;;;;5171234;27;20062;-55
2023/04/20 00:32:48;;;;;;;7.82;3.90;;;7.50;93.30;;;;;;5172222;27;20080;-58
2023/04/20 00:35:14;;;;;;;7.63;3.67;;;7.60;93.90;;;;;;5171292;27;20433;-56
2023/04/20 00:37:40;;;;;;;8.70;3.50;;;7.50;94.20;;;;;;5169580;27;20038;-57
2023/04/20 00:40:06;;;;;;;6.75;3.15;;;7.50;94.70;;;;;;5171183;27;20052;-54
2023/04/20 00:42:32;;;;;;;6.00;3.10;;;7.70;95.00;;;;;;5147012;27;20038;-59
2023/04/20 00:44:58;;;;;;;7.55;3.70;;;7.40;95.40;;;;;;5171529;27;20038;-56
2023/04/20 00:47:24;;;;;;;8.82;3.72;;;8.30;94.80;;;;;;5143727;27;20485;-55
2023/04/20 00:49:52;;;;;;;6.53;3.38;;;7.50;94.50;;;;;;5168869;27;20502;-59
2023/04/20 00:52:19;;;;;;;8.40;3.70;;;7.80;95.00;;;;;;5172666;27;20396;-56
2023/04/20 00:54:46;;;;;;;6.97;3.10;;;7.10;95.10;;;;;;5171804;27;20030;-58
2023/04/20 00:57:13;;;;;;;6.68;3.58;;;7.30;95.40;;;;;;5172159;27;20109;-59
2023/04/20 00:59:39;;;;;;;9.27;3.80;;;7.50;95.60;;;;;;5135974;27;20035;-57
2023/04/20 01:02:05;;;;;;;9.48;3.47;;;6.90;95.70;;;;;;5172405;27;20046;-57
2023/04/20 01:04:31;;;;;;;8.73;3.60;;;7.40;95.80;;;;;;5138526;27;20035;-55
2023/04/20 01:06:57;;;;;;;8.77;3.20;;;7.40;96.10;;;;;;5171914;27;20109;-57
2023/04/20 01:09:22;;;;;;;6.07;3.22;;;7.40;96.40;;;;;;5171509;27;20045;-58
2023/04/20 01:11:48;;;;;;;6.70;3.50;;;7.00;96.50;;;;;;5143172;27;20484;-58
2023/04/20 01:14:14;;;;;;;7.65;3.53;;;7.00;97.10;;;;;;5161176;27;20496;-59
2023/04/20 01:16:39;;;;;;;13.80;4.13;;;7.40;97.50;;;;;;5173193;27;20098;-58
2023/04/20 01:19:05;;;;;;;6.57;3.53;;;7.10;96.80;;;;;;5172654;27;20483;-58
2023/04/20 01:21:31;;;;;;;6.88;3.30;;;6.70;96.10;;;;;;5130495;27;20062;-56
2023/04/20 01:23:57;;;;;;;8.13;3.53;;;6.80;95.70;;;;;;5159239;27;20034;-59
2023/04/20 01:26:24;;;;;;;8.27;3.67;;;6.70;95.90;;;;;;5171149;27;20591;-56
2023/04/20 01:28:50;;;;;;;6.75;3.55;;;6.70;96.20;;;;;;5171670;27;20357;-57
2023/04/20 01:31:16;;;;;;;9.57;3.90;;;6.70;96.40;;;;;;5171632;27;20034;-58
2023/04/20 01:33:42;;;;;;;8.30;3.60;;;6.70;96.70;;;;;;5137490;27;20039;-57
2023/04/20 01:36:08;;;;;;;6.88;3.70;;;6.70;97.00;;;;;;5170784;27;20061;-56
2023/04/20 01:38:35;;;;;;;10.98;4.35;;;6.70;97.60;;;;;;5137627;27;20031;-57
2023/04/20 01:41:07;;;;;;;9.68;4.28;;;6.80;97.70;;;;;;5170664;27;20053;-57
2023/04/20 01:43:33;;;;;;;8.02;3.67;;;6.90;97.90;;;;;;5173211;27;20049;-57
2023/04/20 01:46:00;;;;;;;8.38;3.95;;;6.90;98.10;;;;;;5174194;27;20419;-57
2023/04/20 01:48:26;;;;;;;8.45;4.32;;;6.90;98.40;;;;;;5174100;27;20057;-59
2023/04/20 01:50:52;;;;;;;9.27;3.63;;;7.00;98.80;;;;;;5174602;27;20469;-56
2023/04/20 01:53:19;;;;;;;7.55;3.70;;;7.00;98.90;;;;;;5174494;27;20067;-58
2023/04/20 01:55:45;;;;;;;10.23;3.22;;;7.10;99.30;;;;;;5175313;27;20038;-55
2023/04/20 01:58:10;;;;;;;7.05;3.25;;;7.10;99.50;;;;;;5141866;27;20069;-56
2023/04/20 02:00:36;;;;;;;8.98;3.15;;;7.20;99.80;;;;;;5176249;27;20034;-57
2023/04/20 02:03:02;;;;;;;9.82;3.17;;;7.30;99.80;;;;;;5174514;27;20034;-56
2023/04/20 02:05:28;;;;;;;8.25;3.45;;;7.30;99.90;;;;;;5173723;27;20071;-56
2023/04/20 02:07:53;;;;;;;7.93;3.33;;;7.40;99.90;;;;;;5158178;27;20039;-58
2023/04/20 02:10:19;;;;;;;8.25;3.53;;;7.40;99.90;;;;;;5166598;27;20030;-58
2023/04/20 02:12:46;;;;;;;8.23;3.13;;;7.50;99.90;;;;;;5174728;27;20044;-57
2023/04/20 02:15:12;;;;;;;7.90;3.55;;;7.50;99.90;;;;;;5173489;27;20042;-56
2023/04/20 02:17:39;;;;;;;8.38;3.50;;;7.60;99.90;;;;;;5175416;27;20057;-56
2023/04/20 02:20:07;;;;;;;6.72;3.55;;;7.60;99.90;;;;;;5174722;27;20041;-58
2023/04/20 02:22:34;;;;;;;7.63;3.33;;;7.60;99.90;;;;;;5174714;27;20043;-57
2023/04/20 02:25:04;;;;;;;9.88;3.30;;;7.60;99.90;;;;;;5172763;27;20087;-56
2023/04/20 02:27:31;;;;;;;7.68;3.42;;;7.60;99.90;;;;;;5173990;27;20103;-57
2023/04/20 02:29:56;;;;;;;6.00;2.60;;;7.70;99.90;;;;;;5172894;27;20054;-59
2023/04/20 02:32:22;;;;;;;10.55;3.00;;;7.70;99.90;;;;;;5173563;27;20109;-58
2023/04/20 02:34:48;;;;;;;6.43;2.60;;;7.70;99.90;;;;;;5176053;27;20129;-58
2023/04/20 02:37:13;;;;;;;6.90;2.80;;;7.60;99.90;;;;;;5155208;27;20043;-56
2023/04/20 02:39:39;;;;;;;8.43;2.78;;;7.90;99.90;;;;;;5164912;27;20061;-54
2023/04/20 02:42:05;;;;;;;5.93;2.92;;;7.60;99.90;;;;;;5173432;27;20041;-54
2023/04/20 02:44:30;;;;;;;6.05;2.50;;;7.60;99.90;;;;;;5173344;27;20035;-57
2023/04/20 02:46:56;;;;;;;6.20;2.65;;;7.60;99.90;;;;;;5174748;27;20148;-58
2023/04/20 02:49:22;;;;;;;5.43;2.78;;;7.70;99.90;;;;;;5173259;27;20059;-57
2023/04/20 02:51:48;;;;;;;4.55;2.45;;;7.70;99.90;;;;;;5143418;27;20470;-58
2023/04/20 02:54:13;;;;;;;7.55;3.00;;;7.70;99.90;;;;;;5163822;27;20030;-58
2023/04/20 02:56:39;;;;;;;5.68;2.20;;;7.60;99.90;;;;;;5173509;27;20034;-58
2023/04/20 02:59:04;;;;;;;6.65;2.65;;;7.70;99.90;;;;;;5173177;27;20037;-56
2023/04/20 03:01:30;;;;;;;6.43;2.63;;;7.70;99.90;;;;;;5174413;27;20046;-58
2023/04/20 03:03:56;;;;;;;6.95;2.50;;;7.70;99.90;;;;;;5172336;27;20069;-58
2023/04/20 03:06:21;;;;;;;6.18;2.50;;;7.70;99.90;;;;;;5127351;27;20457;-56
2023/04/20 03:08:47;;;;;;;8.98;2.22;;;7.70;99.90;;;;;;5135528;27;20055;-58
2023/04/20 03:11:13;;;;;;;6.78;2.25;;;7.70;99.90;;;;;;5171652;27;20034;-59
2023/04/20 03:13:40;;;;;;;7.38;2.33;;;7.70;99.90;;;;;;5172015;27;20038;-55
2023/04/20 03:16:06;;;;;;;7.57;2.67;;;7.90;99.90;;;;;;5173684;27;20050;-56
2023/04/20 03:18:31;;;;;;;4.93;2.15;;;7.70;99.90;;;;;;5173293;27;20045;-59
2023/04/20 03:20:57;;;;;;;6.82;2.20;;;7.70;99.90;;;;;;5134055;27;20110;-58
2023/04/20 03:23:23;;;;;;;7.22;2.45;;;7.70;99.90;;;;;;5156151;27;20034;-57
2023/04/20 03:25:49;;;;;;;4.78;1.98;;;7.70;99.90;;;;;;5133382;27;20031;-56
2023/04/20 03:28:15;;;;;;;5.45;2.35;;;7.90;99.90;;;;;;5155775;27;20022;-55
2023/04/20 03:30:41;;;;;;;8.30;2.20;;;7.70;99.90;;;;;;5174578;27;20050;-56
2023/04/20 03:33:07;;;;;;;8.90;2.50;;;7.70;99.90;;;;;;5174162;27;20040;-56
2023/04/20 03:35:33;;;;;;;7.55;2.10;;;7.70;99.90;;;;;;5171057;27;20055;-57
2023/04/20 03:37:58;;;;;;;6.82;2.10;;;7.70;99.90;;;;;;5172175;27;20050;-57
2023/04/20 03:40:24;;;;;;;6.93;2.30;;;7.80;99.90;;;;;;5171993;27;20037;-53
2023/04/20 03:42:50;;;;;;;6.75;2.70;;;7.80;99.90;;;;;;5172350;27;20042;-54
2023/04/20 03:45:16;;;;;;;6.90;2.10;;;7.80;99.90;;;;;;5172121;27;20053;-56
2023/04/20 03:47:42;;;;;;;5.32;2.10;;;7.90;99.90;;;;;;5173201;27;20034;-57
2023/04/20 03:50:08;;;;;;;6.93;2.05;;;7.90;99.90;;;;;;5172077;27;20042;-55
2023/04/20 03:52:33;;;;;;;6.72;1.92;;;7.90;99.90;;;;;;5172738;27;20058;-55
2023/04/20 03:54:59;;;;;;;6.85;2.42;;;8.00;99.90;;;;;;5171708;27;20479;-56
2023/04/20 03:57:25;;;;;;;5.40;1.92;;;8.10;99.90;;;;;;5172408;27;20365;-55
2023/04/20 03:59:50;;;;;;;6.03;2.00;;;8.10;99.90;;;;;;5170891;27;20022;-57
2023/04/20 04:02:17;;;;;;;6.18;2.17;;;8.10;99.90;;;;;;5173227;27;20034;-56
2023/04/20 04:04:44;;;;;;;7.65;2.25;;;8.10;99.90;;;;;;5173641;27;20038;-57
2023/04/20 04:07:09;;;;;;;6.93;1.98;;;8.10;99.90;;;;;;5173954;27;20412;-57
2023/04/20 04:09:35;;;;;;;5.80;2.25;;;8.10;99.90;;;;;;5140039;27;20132;-58
2023/04/20 04:12:03;;;;;;;7.80;1.90;;;8.10;99.90;;;;;;5173070;27;20058;-60
2023/04/20 04:14:29;;;;;;;4.65;2.10;;;8.10;99.90;;;;;;5171752;27;20026;-57
2023/04/20 04:16:55;;;;;;;7.30;2.17;;;8.10;99.90;;;;;;5172274;27;20133;-57
2023/04/20 04:19:20;;;;;;;6.20;2.40;;;8.10;99.90;;;;;;5154833;27;20137;-54
2023/04/20 04:21:46;;;;;;;6.05;2.17;;;8.10;99.90;;;;;;5173513;27;20082;-58
2023/04/20 04:24:12;;;;;;;5.55;1.92;;;8.20;99.90;;;;;;5169906;27;20035;-58
2023/04/20 04:26:37;;;;;;;6.45;2.28;;;8.30;99.90;;;;;;5172692;27;20533;-59
2023/04/20 04:29:03;;;;;;;7.20;2.28;;;8.20;99.90;;;;;;5171305;27;20045;-58
2023/04/20 04:31:31;;;;;;;5.50;1.95;;;8.20;99.90;;;;;;5171528;27;20041;-56
2023/04/20 04:33:57;;;;;;;6.25;1.98;;;8.20;99.90;;;;;;5173471;27;20376;-58
2023/04/20 04:36:25;;;;;;;6.07;2.30;;;8.20;99.90;;;;;;5138053;27;20126;-59
2023/04/20 04:38:51;;;;;;;6.55;2.03;;;8.20;99.90;;;;;;5116421;28;20035;-59
2023/04/20 04:41:17;;;;;;;7.22;2.30;;;8.20;99.90;;;;;;5110627;28;20035;-56
2023/04/20 04:43:43;;;;;;;8.30;2.42;;;8.10;99.90;;;;;;5109273;28;20036;-57
2023/04/20 04:46:10;;;;;;;6.05;2.28;;;8.10;99.90;;;;;;5110921;28;20398;-58
2023/04/20 04:48:41;;;;;;;5.35;2.15;;;8.10;99.90;;;;;;5110818;28;20366;-56
2023/04/20 04:51:07;;;;;;;6.38;2.60;;;8.20;99.90;;;;;;5110002;28;20035;-56
2023/04/20 04:53:33;;;;;;;7.28;2.35;;;8.00;99.90;;;;;;5110838;28;20032;-58
2023/04/20 04:55:59;;;;;;;7.63;2.33;;;8.00;99.90;;;;;;5110046;28;20054;-57
2023/04/20 04:58:24;;;;;;;4.97;2.20;;;7.90;99.90;;;;;;5110915;28;20040;-55
2023/04/20 05:00:50;;;;;;;5.15;2.53;;;7.90;99.90;;;;;;5110625;28;20403;-55
2023/04/20 05:03:16;;;;;;;7.70;2.47;;;7.90;99.90;;;;;;5109802;28;20059;-59
2023/04/20 05:05:42;;;;;;;5.65;2.05;;;7.80;99.90;;;;;;5110561;28;20562;-58
2023/04/20 05:08:08;;;;;;;5.93;2.40;;;7.80;99.90;;;;;;5109329;28;20127;-56
2023/04/20 05:10:33;;;;;;;6.20;2.30;;;7.70;99.90;;;;;;5110631;28;20035;-56
2023/04/20 05:12:59;;;;;;;6.40;2.40;;;7.70;99.90;;;;;;5110563;28;20497;-58
2023/04/20 05:15:25;;;;;;;6.97;2.70;;;7.70;99.90;;;;;;5108913;28;20082;-59
2023/04/20 05:17:51;;;;;;;6.03;2.10;;;7.70;99.90;;;;;;5112414;27;20061;-59
2023/04/20 05:20:17;;;;;;;6.80;2.75;;;7.70;99.90;;;;;;5114258;27;20031;-58
2023/04/20 05:22:43;;;;;;;6.82;2.28;;;7.60;99.90;;;;;;5114436;28;20112;-56
2023/04/20 05:25:10;;;;;;;5.65;2.65;;;7.60;99.90;;;;;;5114086;28;20039;-59
2023/04/20 05:27:36;;;;;;;8.73;2.45;;;7.60;99.90;;;;;;5114187;27;20039;-59
2023/04/20 05:30:03;;;;;;;5.95;2.45;;;7.60;99.90;;;;;;5114841;27;20466;-60
2023/04/20 05:32:28;;;;;;;6.30;2.80;;;7.60;99.90;;;;;;5096111;28;20168;-59
2023/04/20 05:34:54;;;;;;;8.20;2.70;;;7.60;99.90;;;;;;5114612;27;20036;-56
2023/04/20 05:37:20;;;;;;;5.20;2.47;;;7.60;99.90;;;;;;5154958;27;20130;-59
2023/04/20 05:39:46;;;;;;;5.07;2.42;;;7.60;99.90;;;;;;5143134;27;20094;-59
2023/04/20 05:42:11;;;;;;;7.10;2.47;;;7.70;99.90;;;;;;5174525;27;20031;-60
2023/04/20 05:44:38;;;;;;;5.60;2.90;;;7.60;99.90;;;;;;5174200;27;20331;-55
2023/04/20 05:47:07;;;;;;;6.05;2.40;;;7.60;99.90;;;;;;5175632;27;20042;-56
2023/04/20 05:49:34;;;;;;;5.88;2.47;;;7.60;99.90;;;;;;5174152;27;20052;-60
2023/04/20 05:52:00;;;;;;;6.47;2.50;;;7.60;99.90;;;;;;5175120;27;20034;-57
2023/04/20 05:54:27;;;;;;;8.65;2.88;;;7.40;99.90;;;;;;5176162;27;20101;-59
2023/04/20 05:56:53;;;;;;;5.55;2.50;;;7.50;99.90;;;;;;5176053;27;20034;-60
2023/04/20 05:59:20;;;;;;;7.70;2.80;;;7.50;99.90;;;;;;5173957;27;20038;-58
2023/04/20 06:01:45;;;;;;;6.10;2.50;;;7.60;99.90;;;;;;5175099;27;20026;-57
2023/04/20 06:04:11;;;;;;;5.63;2.10;;;7.60;99.90;;;;;;5173691;27;20030;-58
2023/04/20 06:06:37;;;;;;;5.00;2.45;;;7.60;99.90;;;;;;5174371;27;20038;-54
2023/04/20 06:09:03;;;;;;;6.03;2.08;;;7.80;99.90;;;;;;5174074;27;20053;-57
2023/04/20 06:11:30;;;;;;;5.03;2.40;;;7.60;99.90;;;;;;5175159;27;20693;-58
2023/04/20 06:13:56;;;;;;;7.20;2.40;;;7.60;99.90;;;;;;5141328;27;20396;-57
2023/04/20 06:16:22;;;;;;;6.35;2.50;;;7.60;99.90;;;;;;5144215;27;20092;-59
2023/04/20 06:18:48;;;;;;;6.10;2.10;;;7.60;99.90;;;;;;5166490;27;20030;-57
2023/04/20 06:21:15;;;;;;;5.78;2.15;;;7.60;99.90;;;;;;5174602;27;20038;-59
2023/04/20 06:23:41;;;;;;;4.80;2.25;;;7.50;99.90;;;;;;5173848;27;20042;-56
2023/04/20 06:26:08;;;;;;;5.13;2.47;;;7.50;99.90;;;;;;5173609;27;20487;-57
2023/04/20 06:28:35;;;;;;;8.63;3.08;;;7.60;99.90;;;;;;5175662;27;20113;-57
2023/04/20 06:31:01;;;;;;;5.60;2.42;;;7.50;99.90;;;;;;5175909;27;20044;-59
2023/04/20 06:33:27;;;;;;;6.72;2.90;;;7.50;99.90;;;;;;5174286;27;20065;-58
2023/04/20 06:35:55;;;;;;;8.88;2.78;;;7.40;99.90;;;;;;5174796;27;20085;-54
2023/04/20 06:38:21;;;;;;;5.88;2.65;;;7.40;99.90;;;;;;5167794;27;20042;-56
2023/04/20 06:40:47;;;;;;;5.85;2.92;;;7.40;99.90;;;;;;5174713;27;20358;-55
2023/04/20 06:43:13;;;;;;;7.53;3.00;;;7.30;99.90;;;;;;5174094;27;20044;-56
2023/04/20 06:45:39;;;;;;;5.65;2.67;;;7.20;99.90;;;;;;5173617;27;20034;-56
2023/04/20 06:48:05;;;;;;;9.05;3.10;;;7.20;99.90;;;;;;5145938;27;20034;-55
2023/04/20 06:50:30;;;;;;;8.90;3.10;;;7.10;99.90;;;;;;5161726;27;20057;-59
2023/04/20 06:52:56;;;;;;;8.65;3.20;;;7.00;99.90;;;;;;5132042;27;20031;-57
2023/04/20 06:55:22;;;;;;;5.93;3.08;;;6.90;99.90;;;;;;5161431;27;20066;-54
2023/04/20 06:57:47;;;;;;;7.53;3.33;;;6.80;99.90;;;;;;5173812;27;20034;-55
2023/04/20 07:00:14;;;;;;;9.60;3.75;;;6.70;99.90;;;;;;5144724;27;20022;-56
2023/04/20 07:02:47;;;;;;;10.30;3.58;;;6.60;99.90;;;;;;5173587;27;20450;-54
2023/04/20 07:05:14;;;;;;;7.10;3.53;;;6.50;99.90;;;;;;5172636;27;20038;-57
2023/04/20 07:07:41;;;;;;;7.43;2.95;;;6.50;99.90;;;;;;5143231;27;20132;-59
2023/04/20 07:10:08;;;;;;;7.85;3.70;;;6.40;99.90;;;;;;5136478;27;20165;-57
2023/04/20 07:12:38;;;;;;;6.38;3.08;;;6.40;99.90;;;;;;5143001;27;20034;-55
2023/04/20 07:15:05;;;;;;;7.43;3.30;;;6.60;99.90;;;;;;5165508;27;20027;-59
2023/04/20 07:17:31;;;;;;;7.50;3.55;;;6.40;99.90;;;;;;5169256;27;20356;-57
2023/04/20 07:19:57;;;;;;;7.78;3.70;;;6.50;99.90;;;;;;5154525;27;20061;-55
2023/04/20 07:22:24;;;;;;;6.55;3.50;;;6.50;99.90;;;;;;5157002;27;20111;-58
2023/04/20 07:24:50;;;;;;;8.05;3.72;;;6.50;99.90;;;;;;5157940;27;20038;-57
2023/04/20 07:27:16;;;;;;;10.13;3.88;;;6.50;99.90;;;;;;5146221;27;20504;-59
2023/04/20 07:29:42;;;;;;;6.53;3.58;;;6.50;99.90;;;;;;5149052;27;20030;-55
2023/04/20 07:32:08;;;;;;;9.23;3.58;;;6.50;99.90;;;;;;5124965;27;20089;-55
2023/04/20 07:34:33;;;;;;;7.78;3.47;;;6.50;99.90;;;;;;5156612;27;20062;-57
2023/04/20 07:36:59;;;;;;;6.70;3.30;;;6.50;99.90;;;;;;5153691;27;20047;-58
2023/04/20 07:39:27;;;;;;;8.90;3.45;;;6.50;99.90;;;;;;5151025;27;20441;-57
2023/04/20 07:41:53;;;;;;;7.53;3.60;;;6.50;99.90;;;;;;5133304;27;20074;-56
2023/04/20 07:44:19;;;;;;;8.00;3.60;;;6.50;99.90;;;;;;5096589;27;20465;-59
2023/04/20 07:46:45;;;;;;;8.65;3.88;;;6.70;99.90;;;;;;5129184;27;20033;-53
2023/04/20 07:49:10;;;;;;;7.82;3.70;;;6.60;99.90;;;;;;5157668;27;20088;-58
2023/04/20 07:51:36;;;;;;;8.02;4.05;;;6.70;99.90;;;;;;5127102;27;20058;-56
2023/04/20 07:54:02;;;;;;;10.50;4.00;;;6.70;99.90;;;;;;5152648;27;20052;-57
2023/04/20 07:56:27;;;;;;;8.35;3.55;;;6.70;99.90;;;;;;5161516;27;20039;-57
2023/04/20 07:58:53;;;;;;;9.80;4.00;;;6.80;99.90;;;;;;5162996;27;20049;-58
2023/04/20 08:01:23;;;;;;;10.95;4.13;;;6.80;99.90;;;;;;5151659;27;20034;-57
2023/04/20 08:03:49;;;;;;;7.38;3.88;;;6.70;99.90;;;;;;5150087;27;20446;-55
2023/04/20 08:06:15;;;;;;;7.30;3.60;;;6.80;99.90;;;;;;5143257;27;20066;-58
2023/04/20 08:08:40;;;;;;;8.48;3.88;;;6.80;99.90;;;;;;5159430;27;20037;-56
2023/04/20 08:11:07;;;;;;;7.88;4.18;;;6.90;99.90;;;;;;5131214;27;20482;-58
2023/04/20 08:13:33;;;;;;;8.85;3.95;;;6.90;99.90;;;;;;5160531;27;20062;-55
2023/04/20 08:15:58;;;;;;;7.32;4.22;;;6.90;99.90;;;;;;5154403;27;20077;-57
2023/04/20 08:18:24;;;;;;;6.82;3.88;;;6.90;99.90;;;;;;5157553;27;20054;-57
2023/04/20 08:20:50;;;;;;;6.85;3.53;;;7.00;99.90;;;;;;5130937;27;20038;-55
2023/04/20 08:23:16;;;;;;;9.48;4.88;;;7.00;99.90;;;;;;5162768;27;20030;-59
2023/04/20 08:25:41;;;;;;;9.18;4.03;;;7.00;99.90;;;;;;5158458;27;20118;-57
2023/04/20 08:28:07;;;;;;;9.85;4.50;;;7.00;99.90;;;;;;5157127;27;20050;-56
2023/04/20 08:30:33;;;;;;;11.00;4.20;;;7.20;99.90;;;;;;5165267;27;20042;-58
2023/04/20 08:32:58;;;;;;;8.27;4.10;;;7.30;99.90;;;;;;5161741;27;20030;-58
2023/04/20 08:35:24;;;;;;;11.13;4.80;;;7.50;99.90;;;;;;5128418;27;20042;-57
2023/04/20 08:37:50;;;;;;;7.88;4.25;;;7.70;99.90;;;;;;5101817;27;20084;-58
2023/04/20 08:40:20;;;;;;;10.80;5.18;;;7.80;99.90;;;;;;5108261;28;20043;-55
2023/04/20 08:42:45;;;;;;;8.90;5.28;;;7.80;99.90;;;;;;5106044;28;20032;-57
2023/04/20 08:45:12;;;;;;;11.68;4.72;;;7.90;99.90;;;;;;5102591;28;20036;-59
2023/04/20 08:47:38;;;;;;;9.60;4.60;;;8.00;99.90;;;;;;5101000;28;20096;-56
2023/04/20 08:50:05;;;;;;;8.77;4.47;;;8.10;99.90;;;;;;5102108;28;20034;-59
2023/04/20 08:52:32;;;;;;;11.38;5.30;;;8.10;99.90;;;;;;5104107;28;20860;-58
2023/04/20 08:54:57;;;;;;;10.55;5.25;;;8.10;99.90;;;;;;5106930;28;20418;-59
2023/04/20 08:57:24;;;;;;;8.80;4.50;;;8.10;99.90;;;;;;5106938;28;20142;-57
2023/04/20 08:59:50;;;;;;;12.25;5.57;;;8.10;99.90;;;;;;5107278;27;20039;-59
2023/04/20 09:02:16;;;;;;;9.20;4.88;;;8.20;99.90;;;;;;5104399;27;20453;-58
2023/04/20 09:04:42;;;;;;;9.23;4.95;;;8.10;99.90;;;;;;5105252;28;20088;-58
2023/04/20 09:07:17;;;;;;;8.73;5.22;;;8.10;99.90;;;;;;5104721;28;20032;-57
2023/04/20 09:10:01;;;;;;;9.70;4.90;;;8.10;99.90;;;;;;5106279;28;20147;-57
2023/04/20 09:12:27;;;;;;;8.80;4.60;;;8.20;99.90;;;;;;5102280;28;20040;-61
2023/04/20 09:14:54;;;;;;;9.93;5.10;;;8.20;99.90;;;;;;5104865;28;20059;-58
2023/04/20 09:17:49;;;;;;;11.30;6.15;;;8.20;99.90;;;;;;5105593;28;20559;-58
2023/04/20 09:20:15;;;;;;;9.88;5.07;;;8.30;99.90;;;;;;5087692;28;20047;-53
2023/04/20 09:22:41;;;;;;;9.52;5.97;;;8.30;99.90;;;;;;5104301;28;20035;-56
2023/04/20 09:25:17;;;;;;;10.05;5.55;;;8.30;99.90;;;;;;5103901;28;20056;-58
2023/04/20 09:27:42;;;;;;;9.15;5.05;;;8.30;99.90;;;;;;5105447;28;20347;-59
2023/04/20 09:30:09;;;;;;;13.13;7.93;;;8.30;99.90;;;;;;5104676;28;20077;-58
2023/04/20 09:32:34;;;;;;;10.93;5.25;;;8.30;99.90;;;;;;5104159;28;20158;-58
2023/04/20 09:35:00;;;;;;;10.07;5.15;;;8.40;99.90;;;;;;5104844;28;20111;-57
2023/04/20 09:37:26;;;;;;;11.32;5.28;;;8.50;99.90;;;;;;5131492;27;20043;-58
2023/04/20 09:39:55;;;;;;;12.15;6.00;;;8.60;99.90;;;;;;5131665;27;20096;-58
2023/04/20 09:42:23;;;;;;;20.80;10.50;;;8.60;99.90;;;;;;5141981;27;20073;-58
2023/04/20 09:44:50;;;;;;;11.20;5.13;;;8.60;99.90;;;;;;5137326;27;20137;-58
2023/04/20 09:47:19;;;;;;;10.23;5.32;;;8.60;99.90;;;;;;5146582;27;20031;-57
2023/04/20 09:49:46;;;;;;;8.48;4.85;;;8.60;99.90;;;;;;5148827;27;20034;-54
2023/04/20 09:52:17;;;;;;;10.48;5.20;;;8.50;99.90;;;;;;5151702;27;20035;-59
2023/04/20 09:54:44;;;;;;;8.85;4.63;;;8.60;99.90;;;;;;5151504;27;20030;-54
2023/04/20 09:57:11;;;;;;;9.82;5.03;;;8.60;99.90;;;;;;5146521;27;20806;-58
2023/04/20 09:59:39;;;;;;;7.93;5.05;;;8.70;99.90;;;;;;5146879;27;20038;-58
2023/04/20 10:02:09;;;;;;;11.82;5.20;;;8.80;99.90;;;;;;5142728;27;20088;-58
2023/04/20 10:04:35;;;;;;;9.88;5.20;;;8.90;99.90;;;;;;5142113;27;20076;-58
2023/04/20 10:07:04;;;;;;;9.40;5.43;;;9.00;99.90;;;;;;5128131;27;20035;-56
2023/04/20 10:09:33;;;;;;;12.70;5.78;;;9.10;99.90;;;;;;5160626;27;22912;-58
2023/04/20 10:12:08;;;;;;;8.02;5.20;;;9.30;99.90;;;;;;5146131;27;20054;-60
2023/04/20 10:14:34;;;;;;;10.13;5.82;;;9.50;99.90;;;;;;5148849;27;20038;-59
2023/04/20 10:17:05;;;;;;;13.90;6.15;;;9.80;99.90;;;;;;5148208;27;20088;-58
2023/04/20 10:19:41;;;;;;;10.38;5.30;;;10.00;99.90;;;;;;5148197;27;20038;-56
2023/04/20 10:22:09;;;;;;;9.82;5.45;;;10.10;99.90;;;;;;5126267;27;20031;-56
2023/04/20 10:24:37;;;;;;;12.73;5.55;;;10.20;99.90;;;;;;5146866;27;20034;-59
2023/04/20 10:27:14;;;;;;;11.07;5.70;;;10.20;99.90;;;;;;5141703;27;20070;-57
2023/04/20 10:29:40;;;;;;;11.63;5.53;;;10.50;99.90;;;;;;5145900;27;20058;-56
2023/04/20 10:32:05;;;;;;;9.02;5.55;;;10.80;99.90;;;;;;5126272;27;20430;-57
2023/04/20 10:34:32;;;;;;;11.05;5.28;;;10.90;99.90;;;;;;5123739;27;20031;-58
2023/04/20 10:37:12;;;;;;;7.50;4.95;;;10.90;99.90;;;;;;5142260;27;20107;-58
2023/04/20 10:39:45;;;;;;;10.20;5.53;;;11.00;99.90;;;;;;5124136;27;20045;-59
2023/04/20 10:42:11;;;;;;;7.88;5.20;;;11.10;99.90;;;;;;5142652;27;20030;-60
2023/04/20 10:44:50;;;;;;;10.15;6.18;;;11.10;99.90;;;;;;5142785;27;20099;-60
2023/04/20 10:47:17;;;;;;;10.10;5.57;;;11.20;99.90;;;;;;5142776;27;20548;-56
2023/04/20 10:49:43;;;;;;;9.85;6.00;;;11.10;99.90;;;;;;5141626;27;20091;-58
2023/04/20 10:52:09;;;;;;;10.18;5.95;;;11.00;99.90;;;;;;5146910;27;20042;-57
2023/04/20 10:54:39;;;;;;;9.45;6.25;;;11.10;99.90;;;;;;5142984;27;20035;-57
2023/04/20 10:57:06;;;;;;;10.93;6.03;;;11.20;99.90;;;;;;5143460;27;20110;-57
2023/04/20 10:59:33;;;;;;;9.15;5.82;;;11.40;99.90;;;;;;5142254;27;20039;-57
2023/04/20 11:02:00;;;;;;;8.73;5.97;;;11.40;99.90;;;;;;5145356;27;20035;-57
2023/04/20 11:04:34;;;;;;;9.45;5.53;;;11.40;99.90;;;;;;5143285;27;20853;-59
2023/04/20 11:07:08;;;;;;;11.10;6.10;;;11.30;99.90;;;;;;5143626;27;20031;-56
2023/04/20 11:09:35;;;;;;;13.10;6.18;;;11.10;99.90;;;;;;5145083;27;20031;-59
2023/04/20 11:12:06;;;;;;;11.00;5.90;;;11.20;99.90;;;;;;5107749;27;20039;-56
2023/04/20 11:14:34;;;;;;;11.13;6.35;;;11.20;99.90;;;;;;5120421;27;20045;-54
2023/04/20 11:17:00;;;;;;;9.30;5.63;;;11.30;99.90;;;;;;5123538;27;20042;-58
2023/04/20 11:19:28;;;;;;;11.02;6.50;;;11.40;99.90;;;;;;5143415;27;20039;-60
2023/04/20 11:21:53;;;;;;;11.48;6.50;;;11.60;99.90;;;;;;5144084;27;20027;-56
2023/04/20 11:24:19;;;;;;;9.48;6.50;;;11.90;99.90;;;;;;5124823;27;20042;-57
2023/04/20 11:26:48;;;;;;;9.63;6.32;;;12.00;99.90;;;;;;5143256;27;20031;-58
2023/04/20 11:29:26;;;;;;;9.75;6.05;;;12.00;99.90;;;;;;5149033;27;20560;-58
2023/04/20 11:31:52;;;;;;;10.18;6.57;;;12.10;99.90;;;;;;5146813;27;20046;-58
2023/04/20 11:34:18;;;;;;;10.77;6.68;;;12.10;99.90;;;;;;5147297;27;20087;-57
2023/04/20 11:36:45;;;;;;;8.50;6.40;;;12.00;99.90;;;;;;5147418;27;20103;-57
2023/04/20 11:39:14;;;;;;;8.50;6.45;;;12.10;99.90;;;;;;5146259;27;22672;-59
2023/04/20 11:41:41;;;;;;;10.80;7.75;;;12.00;99.90;;;;;;5147139;27;20516;-59
2023/04/20 11:44:07;;;;;;;10.30;6.20;;;12.00;99.90;;;;;;5142046;27;20039;-59
2023/04/20 11:46:36;;;;;;;8.73;6.50;;;12.20;99.90;;;;;;5144268;27;20046;-59
2023/04/20 11:49:03;;;;;;;10.55;6.68;;;12.40;99.90;;;;;;5141581;27;20117;-59
2023/04/20 11:51:30;;;;;;;9.65;6.65;;;12.70;99.90;;;;;;5139144;27;20029;-59
2023/04/20 11:53:56;;;;;;;7.70;5.95;;;12.90;99.90;;;;;;5143041;27;20045;-56
2023/04/20 11:56:22;;;;;;;9.50;6.25;;;13.00;99.90;;;;;;5139310;27;20043;-57
2023/04/20 11:58:48;;;;;;;10.00;6.22;;;13.00;99.90;;;;;;5138768;27;20035;-58
2023/04/20 12:01:15;;;;;;;9.23;6.20;;;13.10;99.90;;;;;;5141392;27;20039;-57
2023/04/20 12:03:41;;;;;;;8.05;6.35;;;13.00;99.90;;;;;;5129480;27;20066;-57
2023/04/20 12:06:07;;;;;;;8.10;6.32;;;12.80;99.90;;;;;;5142230;27;20111;-59
2023/04/20 12:08:33;;;;;;;10.48;6.65;;;12.70;99.90;;;;;;5141659;27;20078;-57
2023/04/20 12:10:58;;;;;;;9.88;6.60;;;12.50;99.90;;;;;;5142328;27;20045;-55
2023/04/20 12:13:24;;;;;;;10.13;6.57;;;12.20;99.90;;;;;;5140041;27;20033;-59
2023/04/20 12:15:50;;;;;;;8.75;7.00;;;12.00;99.90;;;;;;5142821;27;20089;-59
2023/04/20 12:18:15;;;;;;;9.80;7.50;;;11.80;99.90;;;;;;5142013;27;20389;-58
2023/04/20 12:20:41;;;;;;;10.00;7.03;;;11.70;99.90;;;;;;5127647;27;20027;-58
2023/04/20 12:23:07;;;;;;;9.95;7.07;;;11.60;99.90;;;;;;5142140;27;20099;-57
2023/04/20 12:25:33;;;;;;;12.05;7.60;;;11.60;99.90;;;;;;5139874;27;20041;-56
2023/04/20 12:28:00;;;;;;;12.70;7.60;;;11.70;99.90;;;;;;5141260;27;20121;-54
2023/04/20 12:30:26;;;;;;;9.48;6.90;;;11.70;99.90;;;;;;5140890;27;21265;-53
2023/04/20 12:32:51;;;;;;;10.05;7.30;;;11.80;99.90;;;;;;5144007;27;20042;-58
2023/04/20 12:35:17;;;;;;;9.82;6.07;;;11.80;99.90;;;;;;5137886;27;20366;-55
2023/04/20 12:37:44;;;;;;;8.63;6.28;;;11.80;99.90;;;;;;5150161;27;20401;-57
2023/04/20 12:40:10;;;;;;;10.10;6.70;;;12.00;99.90;;;;;;5131663;27;20492;-57
2023/04/20 12:42:36;;;;;;;9.18;6.28;;;12.40;99.90;;;;;;5151305;27;20095;-56
2023/04/20 12:45:02;;;;;;;10.05;6.20;;;12.90;99.90;;;;;;5156351;27;20062;-58
2023/04/20 12:47:28;;;;;;;10.30;6.05;;;13.40;99.90;;;;;;5151762;27;20027;-58
2023/04/20 12:49:54;;;;;;;10.25;6.68;;;13.60;99.90;;;;;;5145710;27;20488;-56